WILLOW CREEK         Display wind rose
     Date    Time     Temp MxTp MnTp DewP  RH Spd Dir Gst Pcp24
2019 Apr 23 12:51 pm    53   53   27   24  32   7  38  14  0.00
2019 Apr 23 11:51 am    51   51   27   29  42   7  48  15  0.00
2019 Apr 23 10:51 am    49   51   27   28  43   7  36  12  0.00
2019 Apr 23 09:51 am    45   51   27   29  53   6  23  12  0.00
2019 Apr 23 08:51 am    43   51   27   29  58   5  19   9  0.00
2019 Apr 23 07:51 am    39   51   27   29  67   4 182   8  0.14
2019 Apr 23 06:51 am    29   51   27   26  89   6 213   9  0.14
2019 Apr 23 05:51 am    27   51   27   25  90   3 213   4  0.14
2019 Apr 23 04:51 am    28   51   27   25  88   2 348   3  0.14
2019 Apr 23 03:51 am    30   51   27   26  84   1 208   2  0.14
2019 Apr 23 02:51 am    30   51   27   26  84   0   -   2  0.14
2019 Apr 23 01:51 am    30   51   27   26  85   2 240   5  0.14
2019 Apr 23 12:51 am    30   51   27   27  88   4 233   9  0.14
2019 Apr 22 11:51 pm    31   51   27   27  85   5 216   7  0.14
2019 Apr 22 10:51 pm    31   51   27   26  81   3 216   8  0.14
2019 Apr 22 09:51 pm    31   51   27   26  80   4 202   6  0.14
2019 Apr 22 08:51 pm    32   51   27   25  76   3 192   5  0.14
2019 Apr 22 07:51 pm    36   51   27   26  67   1 296   5  0.14
2019 Apr 22 06:51 pm    39   51   27   28  63   5 356  13  0.14
2019 Apr 22 05:51 pm    42   51   27   29  60   8  37  18  0.14
2019 Apr 22 04:51 pm    44   51   27   28  52   9  23  16  0.14
2019 Apr 22 03:51 pm    45   51   27   26  46   9  56  18  0.19
2019 Apr 22 02:51 pm    49   51   27   27  42   8  17  15  0.19
2019 Apr 22 01:51 pm    47   55   27   30  52   6  40  11  0.19
2019 Apr 22 12:51 pm    51   55   27   38  60   5 348  10  0.19
2019 Apr 22 11:51 am    49   55   27   38  66   4  64   9  0.19
2019 Apr 22 10:51 am    40   55   27   34  80   5  25   9  0.19
2019 Apr 22 09:51 am    37   55   27   33  85   5  15  10  0.19
2019 Apr 22 08:51 am    46   55   27   35  65   0   -   5  0.19
2019 Apr 22 07:51 am    43   55   27   33  68   0   -   0  0.05
2019 Apr 22 06:51 am    27   55   27   25  93   0   -   0  0.05
2019 Apr 22 05:51 am    27   55   27   26  95   0   -   0  0.05
2019 Apr 22 04:51 am    28   55   27   27  95   0   -   0     -
2019 Apr 22 03:51 am    27   55   27   26  96   1 200   4  0.05
2019 Apr 22 02:51 am    30   55   30   28  92   4 230  11  0.05
2019 Apr 22 01:51 am    31   55   30   29  93   7 212  11  0.05
2019 Apr 22 12:51 am    30   55   30   30  98   6 202  10  0.05
2019 Apr 21 11:51 pm    31   55   31   31  99   5 193   7  0.05
2019 Apr 21 10:51 pm    31   55   31   31  99   0   -   6  0.05
2019 Apr 21 09:51 pm    32   55   32   32  99   4  61   8  0.05
2019 Apr 21 08:51 pm    33   55   33   32  95   6 194  12  0.05
2019 Apr 21 07:51 pm    35   55   33   32  87   2 251   3  0.05
2019 Apr 21 06:51 pm    37   55   33   33  84   3 193   7  0.05
2019 Apr 21 05:51 pm    38   55   33   32  79   5 195  11  0.05
2019 Apr 21 04:51 pm    43   55   33   32  65   5 165  11  0.05
2019 Apr 21 03:51 pm    33   55   33   32  97   8 183  16  0.00
2019 Apr 21 02:51 pm    35   58   34   31  84  13 197  23  0.00
2019 Apr 21 01:51 pm    55   58   34   26  33   8 188  17  0.00
2019 Apr 21 12:51 pm    52   58   34   28  40  10 232  18  0.00